createdAt,value
2022-08-11T00:02:00.816Z,102596.69
2022-08-11T00:12:03.504Z,102598.91
2022-08-11T00:22:06.558Z,102594.03
2022-08-11T00:32:14.595Z,102594.47
2022-08-11T00:42:44.033Z,102599.72
2022-08-11T00:53:19.038Z,102593.06
2022-08-11T01:03:56.984Z,102600.66
2022-08-11T01:14:33.887Z,102591.50
2022-08-11T01:25:00.549Z,102600.94
2022-08-11T01:35:39.817Z,102592.28
2022-08-11T01:45:55.774Z,102597.78
2022-08-11T01:56:23.157Z,102602.16
2022-08-11T02:06:41.638Z,102599.19
2022-08-11T02:16:58.187Z,102596.28
2022-08-11T02:27:14.171Z,102588.31
2022-08-11T02:37:27.171Z,102583.66
2022-08-11T02:47:53.389Z,102583.22
2022-08-11T02:58:01.889Z,102581.53
2022-08-11T03:08:35.913Z,102589.19
2022-08-11T03:18:55.079Z,102587.25
2022-08-11T03:29:31.936Z,102586.25
2022-08-11T03:39:59.797Z,102591.72
2022-08-11T03:50:55.587Z,102596.38
2022-08-11T04:01:19.113Z,102590.09
2022-08-11T04:11:42.252Z,102596.59
2022-08-11T04:21:52.444Z,102596.75
2022-08-11T04:32:10.894Z,102592.78
2022-08-11T04:42:33.685Z,102592.84
2022-08-11T04:52:43.501Z,102586.56
2022-08-11T05:03:21.272Z,102576.47
2022-08-11T05:13:45.367Z,102574.69
2022-08-11T05:23:53.015Z,102586.31
2022-08-11T05:34:01.715Z,102591.44
2022-08-11T05:44:20.304Z,102579.59
2022-08-11T05:54:28.293Z,102573.38
2022-08-11T06:04:31.532Z,102583.00
2022-08-11T06:14:34.672Z,102581.16
2022-08-11T06:24:38.967Z,102581.47
2022-08-11T06:35:07.534Z,102572.75
2022-08-11T06:45:32.372Z,102575.84
2022-08-11T06:55:57.140Z,102584.25
2022-08-11T07:06:10.386Z,102580.13
2022-08-11T07:16:16.317Z,102585.94
2022-08-11T07:26:21.735Z,102579.13
2022-08-11T07:36:28.557Z,102578.22
2022-08-11T07:46:30.757Z,102573.81
2022-08-11T07:56:55.553Z,102577.50
2022-08-11T08:06:57.989Z,102582.69
2022-08-11T08:16:59.531Z,102590.88
2022-08-11T08:27:01.389Z,102584.28
2022-08-11T08:37:16.113Z,102576.91
2022-08-11T08:47:41.923Z,102577.97
2022-08-11T08:57:46.032Z,102571.13
2022-08-11T09:07:50.251Z,102567.97
2022-08-11T09:17:54.435Z,102559.84
2022-08-11T09:27:56.640Z,102552.47
2022-08-11T09:37:59.513Z,102546.31
2022-08-11T09:48:01.372Z,102533.88
2022-08-11T09:58:03.501Z,102519.38
2022-08-11T10:08:07.206Z,102508.72
2022-08-11T10:18:15.982Z,102495.41
2022-08-11T10:28:36.316Z,102489.44
2022-08-11T10:38:39.029Z,102483.59
2022-08-11T10:48:40.581Z,102476.09
2022-08-11T10:58:42.984Z,102473.44
2022-08-11T11:19:00.913Z,102452.75
2022-08-11T11:29:14.701Z,102457.69
2022-08-11T11:39:19.117Z,102447.06
2022-08-11T11:59:31.920Z,102442.44
2022-08-11T12:09:33.979Z,102447.69
2022-08-11T12:19:36.108Z,102427.56
2022-08-11T12:29:41.192Z,102421.09
2022-08-11T12:40:08.837Z,102411.22
2022-08-11T12:50:22.709Z,102398.50
2022-08-11T13:00:28.155Z,102384.88
2022-08-11T13:10:33.678Z,102371.44
2022-08-11T13:20:36.087Z,102368.75
2022-08-11T13:30:41.169Z,102358.56
2022-08-11T13:40:55.670Z,102353.88
2022-08-11T13:50:58.167Z,102338.75
2022-08-11T14:01:00.223Z,102330.88
2022-08-11T14:11:04.855Z,102327.78
2022-08-11T14:21:28.643Z,102308.94
2022-08-11T14:31:32.455Z,102309.09
2022-08-11T14:41:34.452Z,102308.28
2022-08-11T14:51:36.049Z,102300.19
2022-08-11T15:01:38.005Z,102287.31
2022-08-11T15:11:40.449Z,102283.88
2022-08-11T15:21:42.201Z,102282.56
2022-08-11T15:31:49.307Z,102269.38
2022-08-11T15:41:58.456Z,102257.31
2022-08-11T15:52:35.530Z,102254.63
2022-08-11T16:02:38.207Z,102246.84
2022-08-11T16:12:45.474Z,102234.47
2022-08-11T16:23:00.438Z,102231.00
2022-08-11T16:33:47.913Z,102234.69
2022-08-11T16:43:29.026Z,102222.38
2022-08-11T16:53:49.009Z,102221.91
2022-08-11T17:04:00.079Z,102214.00
2022-08-11T17:14:12.764Z,102209.97
2022-08-11T17:24:15.582Z,102215.03
2022-08-11T17:34:17.366Z,102210.91
2022-08-11T17:44:19.822Z,102205.28
2022-08-11T17:54:24.595Z,102215.09
2022-08-11T18:04:27.637Z,102213.16
2022-08-11T18:14:30.589Z,102219.59
2022-08-11T18:24:38.477Z,102227.25
2022-08-11T18:34:41.410Z,102236.28
2022-08-11T18:44:49.477Z,102246.34
2022-08-11T18:54:56.883Z,102259.09
2022-08-11T19:05:00.163Z,102261.75
2022-08-11T19:15:02.755Z,102262.50
2022-08-11T19:25:06.049Z,102267.03
2022-08-11T19:35:09.011Z,102267.91
2022-08-11T19:45:11.220Z,102280.72
2022-08-11T19:55:14.400Z,102279.47
2022-08-11T20:05:15.865Z,102285.28
2022-08-11T20:15:19.605Z,102295.31
2022-08-11T20:25:24.176Z,102305.38
2022-08-11T20:35:26.598Z,102306.34
2022-08-11T20:45:29.578Z,102303.69
2022-08-11T20:55:51.382Z,102310.50
2022-08-11T21:16:25.491Z,102322.63
2022-08-11T21:26:33.082Z,102321.25
2022-08-11T21:36:34.742Z,102319.41
2022-08-11T21:46:39.082Z,102316.88
2022-08-11T21:56:40.861Z,102319.63
2022-08-11T22:06:44.323Z,102324.66
2022-08-11T22:16:45.921Z,102329.75
2022-08-11T22:26:47.786Z,102319.81
2022-08-11T22:36:50.233Z,102315.84
2022-08-11T22:46:54.471Z,102317.53
2022-08-11T22:56:57.549Z,102324.50
2022-08-11T23:07:01.561Z,102332.13
2022-08-11T23:17:03.047Z,102334.06
2022-08-11T23:27:06.399Z,102325.53
2022-08-11T23:37:07.931Z,102322.38
2022-08-11T23:47:09.427Z,102329.75
2022-08-11T23:57:12.308Z,102323.50
